PWSweather.com
Personal Weather Stations
Station Observations
IROGLAN40
AalgaardNO 4330

AalgaardNO 4330

Lat: 58.773, Lon: 5.846

Elevation: 326

Station Type: Davis Vanatge Pro2

Latest ConditionsUpdated 11:10:02 AM GMT+01:01 Wednesday, Sep 28, 2016
Currently Today's Max Today's Min Today's Average
Temperature 55.8°F13.2°C 56.4°F13.6°C 52.2°F11.2°C 54.7°F12.6°C
Dew Point 52.9°F11.6°C 52.9°F11.6°C 49.1°F9.5°C 51.3°F10.7°C
Winds 4.6 mph WNW7.4 kmh WNW 10.4 mph WNW16.7 kmh WNW - 5.6 mph 9.0 kmh
Wind Gusts 10.4 mph16.7 kmh 17.3 mph27.8 kmh - -
Humidity 90% 90% 85% 88%
Pressure 29.69 in1005.4 mb 29.72 in1006.4 mb 29.63 in1003.4 mb -
Precipitation - 0.28 in7.1 mm - -
Hour Temp Dew Point Humidity Winds Wind Gusts Pressure Precip Precip Rate Daily Precip Total
11:10 AM 55.8°F13.2°C 52.9°F11.6°C 90% 4.6 mph WNW7.4 kmh WNW 10.4 mph16.7 kmh 29.69 in1005.4 mb - 0.00 in0.0 mm 0.28 in7.1 mm
11:00 AM 55.4°F13.0°C 52.5°F11.4°C 90% 5.8 mph WNW9.3 kmh WNW 9.2 mph14.8 kmh 29.68 in1005.1 mb - 0.00 in0.0 mm 0.28 in7.1 mm
10:50 AM 54.8°F12.7°C 52.0°F11.1°C 90% 6.9 mph WNW11.1 kmh WNW 12.7 mph20.4 kmh 29.69 in1005.4 mb - 0.00 in0.0 mm 0.28 in7.1 mm
10:40 AM 55.7°F13.2°C 52.8°F11.6°C 90% 3.5 mph NW5.6 kmh NW 8.1 mph13.0 kmh 29.68 in1005.1 mb - 0.01 in0.3 mm 0.28 in7.1 mm
10:30 AM 54.3°F12.4°C 51.4°F10.8°C 90% 6.9 mph NW11.1 kmh NW 9.2 mph14.8 kmh 29.69 in1005.4 mb - 0.01 in0.3 mm 0.28 in7.1 mm
10:20 AM 54.2°F12.3°C 51.3°F10.7°C 90% 6.9 mph NW11.1 kmh NW 10.4 mph16.7 kmh 29.68 in1005.1 mb - 0.02 in0.5 mm 0.27 in6.9 mm
10:10 AM 54.4°F12.4°C 51.2°F10.7°C 89% 6.9 mph WNW11.1 kmh WNW 11.5 mph18.5 kmh 29.68 in1005.1 mb - 0.02 in0.5 mm 0.24 in6.1 mm
10:00 AM 55.0°F12.8°C 51.8°F11.0°C 89% 5.8 mph NW9.3 kmh NW 9.2 mph14.8 kmh 29.67 in1004.7 mb - 0.00 in0.0 mm 0.23 in5.8 mm
09:50 AM 55.1°F12.8°C 51.9°F11.1°C 89% 3.5 mph WNW5.6 kmh WNW 11.5 mph18.5 kmh 29.67 in1004.7 mb - 0.00 in0.0 mm 0.23 in5.8 mm
09:40 AM 55.1°F12.8°C 51.9°F11.1°C 89% 5.8 mph WSW9.3 kmh WSW 6.9 mph11.1 kmh 29.67 in1004.7 mb - 0.00 in0.0 mm 0.23 in5.8 mm
09:30 AM 54.7°F12.6°C 51.5°F10.8°C 89% 6.9 mph WNW11.1 kmh WNW 17.3 mph27.8 kmh 29.67 in1004.7 mb - 0.00 in0.0 mm 0.23 in5.8 mm
09:20 AM 54.8°F12.7°C 51.9°F11.1°C 90% 4.6 mph NW7.4 kmh NW 13.8 mph22.2 kmh 29.67 in1004.7 mb - 0.00 in0.0 mm 0.23 in5.8 mm
09:10 AM 54.6°F12.6°C 51.4°F10.8°C 89% 4.6 mph WNW7.4 kmh WNW 8.1 mph13.0 kmh 29.67 in1004.7 mb - 0.00 in0.0 mm 0.23 in5.8 mm
09:00 AM 54.3°F12.4°C 51.1°F10.6°C 89% 5.8 mph W9.3 kmh W 10.4 mph16.7 kmh 29.67 in1004.7 mb - 0.00 in0.0 mm 0.23 in5.8 mm
08:50 AM 54.6°F12.6°C 51.4°F10.8°C 89% 10.4 mph WNW16.7 kmh WNW 12.7 mph20.4 kmh 29.67 in1004.7 mb - 0.00 in0.0 mm 0.23 in5.8 mm
08:40 AM 54.7°F12.6°C 51.5°F10.8°C 89% 5.8 mph W9.3 kmh W 11.5 mph18.5 kmh 29.66 in1004.4 mb - 0.01 in0.3 mm 0.23 in5.8 mm
08:30 AM 54.4°F12.4°C 51.2°F10.7°C 89% 3.5 mph WNW5.6 kmh WNW 9.2 mph14.8 kmh 29.66 in1004.4 mb - 0.00 in0.0 mm 0.22 in5.6 mm
08:20 AM 54.1°F12.3°C 50.9°F10.5°C 89% 5.8 mph NW9.3 kmh NW 11.5 mph18.5 kmh 29.66 in1004.4 mb - 0.00 in0.0 mm 0.22 in5.6 mm
08:10 AM 53.9°F12.2°C 51.0°F10.6°C 90% 4.6 mph WNW7.4 kmh WNW 9.2 mph14.8 kmh 29.66 in1004.4 mb - 0.00 in0.0 mm 0.22 in5.6 mm
08:00 AM 53.7°F12.1°C 50.8°F10.4°C 90% 4.6 mph WNW7.4 kmh WNW 4.6 mph7.4 kmh 29.66 in1004.4 mb - 0.00 in0.0 mm 0.22 in5.6 mm
07:50 AM 53.6°F12.0°C 50.7°F10.4°C 90% 6.9 mph NW11.1 kmh NW 11.5 mph18.5 kmh 29.66 in1004.4 mb - 0.00 in0.0 mm 0.22 in5.6 mm
07:40 AM 53.4°F11.9°C 50.5°F10.3°C 90% 4.6 mph WNW7.4 kmh WNW 8.1 mph13.0 kmh 29.65 in1004.1 mb - 0.00 in0.0 mm 0.22 in5.6 mm
07:30 AM 53.2°F11.8°C 50.3°F10.2°C 90% 5.8 mph NW9.3 kmh NW 9.2 mph14.8 kmh 29.65 in1004.1 mb - 0.00 in0.0 mm 0.22 in5.6 mm
07:20 AM 53.3°F11.8°C 50.4°F10.2°C 90% 6.9 mph WNW11.1 kmh WNW 11.5 mph18.5 kmh 29.65 in1004.1 mb - 0.00 in0.0 mm 0.22 in5.6 mm
07:10 AM 53.3°F11.8°C 50.5°F10.3°C 90% 5.8 mph NW9.3 kmh NW 8.1 mph13.0 kmh 29.65 in1004.1 mb - 0.00 in0.0 mm 0.22 in5.6 mm
07:00 AM 53.6°F12.0°C 50.7°F10.4°C 90% 8.1 mph NW13.0 kmh NW 11.5 mph18.5 kmh 29.65 in1004.1 mb - 0.02 in0.5 mm 0.22 in5.6 mm
06:50 AM 53.5°F11.9°C 50.6°F10.3°C 90% 4.6 mph WNW7.4 kmh WNW 8.1 mph13.0 kmh 29.64 in1003.7 mb - 0.01 in0.3 mm 0.20 in5.1 mm
06:40 AM 53.6°F12.0°C 50.7°F10.4°C 90% 5.8 mph NW9.3 kmh NW 6.9 mph11.1 kmh 29.64 in1003.7 mb - 0.00 in0.0 mm 0.19 in4.8 mm
06:30 AM 53.5°F11.9°C 50.6°F10.3°C 90% 4.6 mph W7.4 kmh W 6.9 mph11.1 kmh 29.64 in1003.7 mb - 0.00 in0.0 mm 0.19 in4.8 mm
06:20 AM 53.4°F11.9°C 50.5°F10.3°C 90% 5.8 mph NW9.3 kmh NW 10.4 mph16.7 kmh 29.64 in1003.7 mb - 0.00 in0.0 mm 0.19 in4.8 mm
06:10 AM 53.3°F11.8°C 50.1°F10.1°C 89% 4.6 mph WNW7.4 kmh WNW 6.9 mph11.1 kmh 29.64 in1003.7 mb - 0.01 in0.3 mm 0.19 in4.8 mm
06:00 AM 53.6°F12.0°C 50.7°F10.4°C 90% 8.1 mph NW13.0 kmh NW 11.5 mph18.5 kmh 29.64 in1003.7 mb - 0.01 in0.3 mm 0.19 in4.8 mm
05:50 AM 53.7°F12.1°C 50.8°F10.4°C 90% 6.9 mph NW11.1 kmh NW 11.5 mph18.5 kmh 29.64 in1003.7 mb - 0.00 in0.0 mm 0.18 in4.6 mm
05:40 AM 53.6°F12.0°C 50.7°F10.4°C 90% 6.9 mph NW11.1 kmh NW 11.5 mph18.5 kmh 29.64 in1003.7 mb - 0.00 in0.0 mm 0.18 in4.6 mm
05:30 AM 53.4°F11.9°C 50.5°F10.3°C 90% 8.1 mph NW13.0 kmh NW 11.5 mph18.5 kmh 29.64 in1003.7 mb - 0.00 in0.0 mm 0.18 in4.6 mm
05:20 AM 52.8°F11.6°C 49.9°F9.9°C 90% 3.5 mph WSW5.6 kmh WSW 5.8 mph9.3 kmh 29.64 in1003.7 mb - 0.00 in0.0 mm 0.18 in4.6 mm
05:10 AM 52.4°F11.3°C 49.3°F9.6°C 89% 4.6 mph NW7.4 kmh NW 5.8 mph9.3 kmh 29.64 in1003.7 mb - 0.00 in0.0 mm 0.18 in4.6 mm
05:00 AM 52.4°F11.3°C 49.3°F9.6°C 89% 5.8 mph WNW9.3 kmh WNW 9.2 mph14.8 kmh 29.64 in1003.7 mb - 0.01 in0.3 mm 0.18 in4.6 mm
04:50 AM 52.2°F11.2°C 49.1°F9.5°C 89% 5.8 mph WNW9.3 kmh WNW 5.8 mph9.3 kmh 29.64 in1003.7 mb - 0.01 in0.3 mm 0.17 in4.3 mm
04:40 AM 52.3°F11.3°C 49.1°F9.5°C 89% 6.9 mph WNW11.1 kmh WNW 9.2 mph14.8 kmh 29.63 in1003.4 mb - 0.04 in1.0 mm 0.17 in4.3 mm
04:30 AM 53.7°F12.1°C 50.2°F10.1°C 88% 8.1 mph NW13.0 kmh NW 17.3 mph27.8 kmh 29.63 in1003.4 mb - 0.05 in1.3 mm 0.13 in3.3 mm
04:20 AM 55.2°F12.9°C 51.7°F10.9°C 88% 6.9 mph NW11.1 kmh NW 9.2 mph14.8 kmh 29.63 in1003.4 mb - 0.05 in1.3 mm 0.08 in2.0 mm
04:10 AM 55.4°F13.0°C 51.9°F11.1°C 88% 8.1 mph WNW13.0 kmh WNW 15.0 mph24.1 kmh 29.63 in1003.4 mb - 0.01 in0.3 mm 0.03 in0.8 mm
04:00 AM 55.5°F13.1°C 51.7°F10.9°C 87% 8.1 mph WNW13.0 kmh WNW 15.0 mph24.1 kmh 29.63 in1003.4 mb - 0.01 in0.3 mm 0.03 in0.8 mm
03:50 AM 55.6°F13.1°C 51.8°F11.0°C 87% 5.8 mph W9.3 kmh W 11.5 mph18.5 kmh 29.63 in1003.4 mb - 0.00 in0.0 mm 0.02 in0.5 mm
03:40 AM 55.8°F13.2°C 52.0°F11.1°C 87% 4.6 mph NNW7.4 kmh NNW 5.8 mph9.3 kmh 29.64 in1003.7 mb - 0.01 in0.3 mm 0.02 in0.5 mm
03:30 AM 55.9°F13.3°C 52.1°F11.2°C 87% 4.6 mph WNW7.4 kmh WNW 8.1 mph13.0 kmh 29.64 in1003.7 mb - 0.00 in0.0 mm 0.02 in0.5 mm
03:20 AM 55.9°F13.3°C 52.1°F11.2°C 87% 5.8 mph W9.3 kmh W 6.9 mph11.1 kmh 29.64 in1003.7 mb - 0.01 in0.3 mm 0.02 in0.5 mm
03:10 AM 56.0°F13.3°C 51.9°F11.1°C 86% 5.8 mph WNW9.3 kmh WNW 9.2 mph14.8 kmh 29.64 in1003.7 mb - 0.01 in0.3 mm 0.02 in0.5 mm
03:00 AM 56.2°F13.4°C 52.1°F11.2°C 86% 8.1 mph WNW13.0 kmh WNW 11.5 mph18.5 kmh 29.65 in1004.1 mb - 0.01 in0.3 mm 0.01 in0.3 mm
02:50 AM 56.2°F13.4°C 52.1°F11.2°C 86% 3.5 mph W5.6 kmh W 11.5 mph18.5 kmh 29.66 in1004.4 mb - 0.00 in0.0 mm 0.00 in0.0 mm
02:40 AM 56.0°F13.3°C 51.9°F11.1°C 86% 3.5 mph WSW5.6 kmh WSW 5.8 mph9.3 kmh 29.66 in1004.4 mb - 0.00 in0.0 mm 0.00 in0.0 mm
02:30 AM 56.0°F13.3°C 51.9°F11.1°C 86% 6.9 mph NNW11.1 kmh NNW 8.1 mph13.0 kmh 29.66 in1004.4 mb - 0.00 in0.0 mm 0.00 in0.0 mm
02:20 AM 56.4°F13.6°C 51.9°F11.1°C 85% 6.9 mph NW11.1 kmh NW 11.5 mph18.5 kmh 29.66 in1004.4 mb - 0.00 in0.0 mm 0.00 in0.0 mm
02:10 AM 56.4°F13.6°C 51.9°F11.1°C 85% 6.9 mph NW11.1 kmh NW 11.5 mph18.5 kmh 29.67 in1004.7 mb - 0.00 in0.0 mm 0.00 in0.0 mm
02:00 AM 56.4°F13.6°C 51.9°F11.1°C 85% 6.9 mph NW11.1 kmh NW 16.1 mph25.9 kmh 29.67 in1004.7 mb - 0.00 in0.0 mm 0.00 in0.0 mm
01:50 AM 56.3°F13.5°C 51.8°F11.0°C 85% 9.2 mph NW14.8 kmh NW 11.5 mph18.5 kmh 29.68 in1005.1 mb - 0.00 in0.0 mm 0.00 in0.0 mm
01:40 AM 56.2°F13.4°C 52.1°F11.2°C 86% 4.6 mph NW7.4 kmh NW 13.8 mph22.2 kmh 29.68 in1005.1 mb - 0.00 in0.0 mm 0.00 in0.0 mm
01:30 AM 56.2°F13.4°C 52.1°F11.2°C 86% 2.3 mph SSE3.7 kmh SSE 3.5 mph5.6 kmh 29.68 in1005.1 mb - 0.00 in0.0 mm 0.00 in0.0 mm
01:20 AM 56.1°F13.4°C 52.0°F11.1°C 86% 2.3 mph NE3.7 kmh NE 3.5 mph5.6 kmh 29.68 in1005.1 mb - 0.00 in0.0 mm 0.00 in0.0 mm
01:10 AM 56.0°F13.3°C 51.9°F11.1°C 86% 3.5 mph NW5.6 kmh NW 4.6 mph7.4 kmh 29.69 in1005.4 mb - 0.00 in0.0 mm 0.00 in0.0 mm
01:00 AM 55.9°F13.3°C 51.8°F11.0°C 86% 3.5 mph WSW5.6 kmh WSW 6.9 mph11.1 kmh 29.69 in1005.4 mb - 0.00 in0.0 mm 0.00 in0.0 mm
12:50 AM 55.8°F13.2°C 52.0°F11.1°C 87% 3.5 mph SE5.6 kmh SE 8.1 mph13.0 kmh 29.70 in1005.8 mb - 0.00 in0.0 mm 0.00 in0.0 mm
12:40 AM 55.7°F13.2°C 51.9°F11.1°C 87% 5.8 mph SW9.3 kmh SW 9.2 mph14.8 kmh 29.70 in1005.8 mb - 0.00 in0.0 mm 0.00 in0.0 mm
12:30 AM 55.6°F13.1°C 52.1°F11.2°C 88% 3.5 mph NW5.6 kmh NW 12.7 mph20.4 kmh 29.71 in1006.1 mb - 0.00 in0.0 mm 0.00 in0.0 mm
12:20 AM 55.4°F13.0°C 51.9°F11.1°C 88% 4.6 mph SW7.4 kmh SW 6.9 mph11.1 kmh 29.71 in1006.1 mb - 0.00 in0.0 mm 0.00 in0.0 mm
12:10 AM 55.4°F13.0°C 51.9°F11.1°C 88% 1.2 mph ESE1.9 kmh ESE 1.2 mph1.9 kmh 29.71 in1006.1 mb - 0.00 in0.0 mm 0.00 in0.0 mm
12:00 AM 55.4°F13.0°C 51.9°F11.1°C 88% 2.3 mph NNE3.7 kmh NNE 4.6 mph7.4 kmh 29.72 in1006.4 mb - 0.00 in0.0 mm 0.00 in0.0 mm